Terminal Aerodrome Forecast
Issued by NWS

Home | Current Version | Previous Version | Text Only | Print | Product List | Glossary On
Versions: 1 2 3 4 5 6 7 8 9 10 11 12 13
000
FTUS42 TJSJ 162300
TAFJSJ
TAF
TJSJ 162323Z 1700/1724 09009KT P6SM SCT026
     FM170630 10004KT P6SM VCSH SCT022 SCT040
     FM171400 07015KT P6SM FEW025 SCT060
     FM172230 09009KT P6SM FEW030 SCT060=

USA.gov is the U.S. government's official web portal to all federal, state and local government web resources and services.